Time;durP1;ratioP1;P1;durP2;ratioP2;P2;SDS_P1;SDS_P2;PMS_P1;PMS_P2;Temp;Humidity;BMP_temperature;BMP_pressure;BME280_temperature;BME280_humidity;BME280_pressure;Samples;Min_cycle;Max_cycle;Signal;HPM_P1;HPM_P2
2021/01/04 00:02:06;;;;;;;28.25;17.37;;;;;;;8.01;57.91;101588.41;1752756;81;21386;-78
2021/01/04 00:05:16;;;;;;;33.58;18.77;;;;;;;7.99;57.94;101582.31;1752687;81;21446;-79
2021/01/04 00:08:32;;;;;;;28.65;15.85;;;;;;;7.96;58.04;101590.56;1752795;81;21628;-77
2021/01/04 00:11:24;;;;;;;26.05;15.20;;;;;;;7.93;58.15;101589.93;1752518;81;21224;-77
2021/01/04 00:14:07;;;;;;;26.07;14.98;;;;;;;7.88;58.25;101575.59;1753087;81;21183;-77
2021/01/04 00:17:09;;;;;;;20.97;11.88;;;;;;;7.94;58.29;101574.28;1753457;81;22243;-78
2021/01/04 00:20:09;;;;;;;28.67;16.45;;;;;;;8.02;58.19;101563.91;1753215;81;21169;-79
2021/01/04 00:23:03;;;;;;;30.23;17.37;;;;;;;8.11;58.04;101568.06;1753293;81;21132;-78
2021/01/04 00:25:45;;;;;;;33.23;18.55;;;;;;;8.24;57.83;101559.98;1753447;81;21156;-77
2021/01/04 00:28:16;;;;;;;32.65;19.50;;;;;;;8.34;57.64;101557.47;1752112;81;21155;-79
2021/01/04 00:31:11;;;;;;;34.15;19.65;;;;;;;8.44;57.39;101558.98;1753283;81;21798;-78
2021/01/04 00:33:47;;;;;;;36.75;20.90;;;;;;;8.49;57.24;101562.14;1716485;81;21187;-77
2021/01/04 00:36:29;;;;;;;32.53;18.40;;;;;;;8.47;57.15;101566.77;1752667;81;21242;-78
2021/01/04 00:39:25;;;;;;;37.95;19.87;;;;;;;8.42;57.20;101556.92;1753035;81;21167;-77
2021/01/04 00:42:22;;;;;;;34.55;18.48;;;;;;;8.36;57.31;101555.09;1752889;81;21183;-78
2021/01/04 00:44:57;;;;;;;36.93;20.75;;;;;;;8.32;57.43;101546.07;1753413;81;27326;-80
2021/01/04 00:47:42;;;;;;;37.35;20.75;;;;;;;8.26;57.53;101548.70;1752824;81;21196;-78
2021/01/04 00:50:43;;;;;;;35.75;18.92;;;;;;;8.21;57.67;101550.02;1752988;81;21125;-77
2021/01/04 00:53:32;;;;;;;35.98;19.55;;;;;;;8.21;57.73;101546.02;1753083;81;21631;-77
2021/01/04 00:56:41;;;;;;;34.50;19.92;;;;;;;8.22;57.71;101550.38;1753140;81;21174;-77
2021/01/04 00:59:34;;;;;;;31.97;17.87;;;;;;;8.24;57.76;101552.47;1753244;81;21710;-78
2021/01/04 01:02:10;;;;;;;34.92;20.50;;;;;;;8.29;57.64;101540.95;1749956;81;21226;-80
2021/01/04 01:05:16;;;;;;;33.53;19.32;;;;;;;8.38;57.46;101546.95;1753198;81;21143;-79
2021/01/04 01:08:04;;;;;;;34.53;18.02;;;;;;;8.45;57.30;101547.33;1753157;81;21072;-80
2021/01/04 01:10:41;;;;;;;29.87;18.27;;;;;;;8.46;57.12;101546.38;1753231;81;21135;-79
2021/01/04 01:13:34;;;;;;;30.55;18.20;;;;;;;8.47;57.12;101546.73;1753044;81;21643;-77
2021/01/04 01:16:16;;;;;;;31.62;19.15;;;;;;;8.50;56.99;101542.02;1753913;80;21179;-78
2021/01/04 01:19:10;;;;;;;28.90;18.00;;;;;;;8.52;56.88;101538.73;1752939;81;21508;-77
2021/01/04 01:21:38;;;;;;;32.00;17.40;;;;;;;8.50;56.85;101540.69;1753166;80;20997;-76
2021/01/04 01:24:07;;;;;;;33.63;18.80;;;;;;;8.48;56.81;101537.27;1753100;81;21659;-77
2021/01/04 01:27:00;;;;;;;27.75;16.52;;;;;;;8.48;56.83;101537.27;1753290;81;21374;-77
2021/01/04 01:29:44;;;;;;;30.30;17.70;;;;;;;8.50;56.75;101532.67;1745710;81;21235;-81
2021/01/04 01:33:07;;;;;;;34.15;18.90;;;;;;;8.51;56.74;101534.37;1752283;81;21175;-79
2021/01/04 01:36:11;;;;;;;31.55;19.23;;;;;;;8.53;56.69;101533.75;1753348;81;21163;-76
2021/01/04 01:39:21;;;;;;;33.05;18.27;;;;;;;8.60;56.65;101534.99;1727597;81;21187;-77
2021/01/04 01:42:24;;;;;;;26.07;14.83;;;;;;;8.66;56.53;101522.13;1753183;81;22265;-76
2021/01/04 01:45:23;;;;;;;25.82;14.50;;;;;;;8.70;56.39;101516.91;1753094;81;21187;-76
2021/01/04 01:48:10;;;;;;;22.73;14.98;;;;;;;8.71;56.35;101516.78;1762163;79;21199;-76
2021/01/04 01:51:12;;;;;;;24.75;14.70;;;;;;;8.74;56.36;101518.37;1774090;80;21167;-78
2021/01/04 01:54:16;;;;;;;23.80;13.85;;;;;;;8.71;56.24;101523.95;1773600;80;21160;-77
2021/01/04 01:57:21;;;;;;;22.30;12.40;;;;;;;8.67;56.26;101521.15;1772116;79;21795;-80
2021/01/04 02:00:11;;;;;;;19.48;12.75;;;;;;;8.56;56.28;101516.16;1771882;80;21176;-78
2021/01/04 02:02:43;;;;;;;18.82;13.28;;;;;;;8.48;56.47;101523.06;1759682;81;22309;-77
2021/01/04 02:05:28;;;;;;;21.20;13.48;;;;;;;8.47;56.54;101522.22;1770237;80;21663;-79
2021/01/04 02:08:06;;;;;;;19.60;12.03;;;;;;;8.47;56.55;101523.55;1756621;80;21249;-76
2021/01/04 02:10:37;;;;;;;24.72;13.53;;;;;;;8.45;56.52;101523.30;1777254;79;21389;-77
2021/01/04 02:13:23;;;;;;;28.50;13.28;;;;;;;8.49;56.55;101528.28;1756176;80;21571;-79
2021/01/04 02:16:21;;;;;;;24.98;13.95;;;;;;;8.54;56.44;101535.48;1763737;80;21177;-75
2021/01/04 02:19:15;;;;;;;30.97;15.53;;;;;;;8.62;56.34;101537.53;1769888;80;21233;-77
2021/01/04 02:22:09;;;;;;;39.13;19.30;;;;;;;8.66;56.23;101539.48;1755194;80;21534;-75
2021/01/04 02:24:37;;;;;;;36.58;19.62;;;;;;;8.68;56.13;101538.41;1773685;80;21812;-78
2021/01/04 02:27:24;;;;;;;39.40;19.02;;;;;;;8.69;56.07;101533.91;1760194;81;21172;-77
2021/01/04 02:29:52;;;;;;;31.75;17.48;;;;;;;8.70;56.02;101533.78;1776260;80;21205;-77
2021/01/04 02:32:20;;;;;;;28.83;16.40;;;;;;;8.72;56.02;101528.31;1775787;79;21591;-75
2021/01/04 02:34:53;;;;;;;24.35;14.53;;;;;;;8.77;55.93;101535.02;1771452;80;21742;-76
2021/01/04 02:37:22;;;;;;;22.20;13.20;;;;;;;8.81;55.83;101535.61;1772186;80;22660;-78
2021/01/04 02:40:02;;;;;;;24.82;14.60;;;;;;;8.83;55.76;101524.33;1741363;80;21192;-78
2021/01/04 02:42:36;;;;;;;21.73;13.10;;;;;;;8.82;55.69;101527.98;1782387;80;21164;-78
2021/01/04 02:45:09;;;;;;;25.48;15.25;;;;;;;8.82;55.69;101530.66;1782389;80;21612;-78
2021/01/04 02:48:19;;;;;;;29.87;15.28;;;;;;;8.79;55.76;101530.88;1760080;81;21759;-79
2021/01/04 02:51:08;;;;;;;;;;;;;;;8.80;55.77;101535.25;1785070;80;21320;-78
2021/01/04 02:53:50;;;;;;;29.45;16.93;;;;;;;8.77;55.80;101540.85;1782687;80;20273;-76
2021/01/04 02:56:36;;;;;;;29.52;17.23;;;;;;;8.71;55.89;101547.98;1760010;80;21173;-76
2021/01/04 02:59:44;;;;;;;29.65;15.50;;;;;;;8.67;56.00;101546.52;1722918;80;21105;-79
2021/01/04 03:02:20;;;;;;;24.32;13.58;;;;;;;8.68;56.06;101546.91;1759845;81;21220;-80
2021/01/04 03:04:49;;;;;;;24.10;13.48;;;;;;;8.64;56.03;101548.48;1782288;80;21807;-78
2021/01/04 03:07:22;;;;;;;25.97;14.38;;;;;;;8.66;56.10;101530.14;1781885;80;21689;-79
2021/01/04 03:09:52;;;;;;;26.95;15.00;;;;;;;8.69;56.06;101519.22;1782315;79;21157;-80
2021/01/04 03:12:26;;;;;;;26.10;15.18;;;;;;;8.66;56.08;101506.95;1759760;80;21422;-77
2021/01/04 03:15:27;;;;;;;25.70;15.53;;;;;;;8.66;56.13;101512.78;1781264;80;21205;-78
2021/01/04 03:18:22;;;;;;;28.85;16.95;;;;;;;8.68;56.15;101518.87;1780849;80;21787;-77
2021/01/04 03:20:50;;;;;;;28.02;16.05;;;;;;;8.67;56.09;101521.99;1781384;80;21305;-78
2021/01/04 03:23:18;;;;;;;24.82;13.20;;;;;;;8.73;56.05;101527.37;1782146;80;21185;-78
2021/01/04 03:25:53;;;;;;;22.25;13.55;;;;;;;8.76;56.01;101529.78;1782581;80;21616;-77
2021/01/04 03:28:25;;;;;;;23.98;14.35;;;;;;;8.79;55.95;101519.70;1755906;80;21158;-79
2021/01/04 03:30:54;;;;;;;28.00;15.80;;;;;;;8.79;55.93;101518.86;1782342;80;21192;-77
2021/01/04 03:33:22;;;;;;;23.52;14.68;;;;;;;8.83;55.86;101521.66;1759856;81;21184;-76
2021/01/04 03:35:50;;;;;;;24.00;14.85;;;;;;;8.92;55.74;101520.09;1782344;80;21153;-76
2021/01/04 03:38:18;;;;;;;25.02;13.72;;;;;;;8.97;55.58;101509.88;1759699;81;21651;-78
2021/01/04 03:40:46;;;;;;;22.80;13.30;;;;;;;9.01;55.45;101506.84;1782071;80;21639;-78
2021/01/04 03:43:14;;;;;;;23.35;13.85;;;;;;;9.04;55.24;101520.45;1782145;80;22638;-78
2021/01/04 03:45:41;;;;;;;21.00;13.35;;;;;;;9.05;55.22;101523.00;1759678;80;21184;-78
2021/01/04 03:48:09;;;;;;;23.73;15.23;;;;;;;9.04;55.12;101521.30;1782097;80;21174;-77
2021/01/04 03:50:37;;;;;;;23.12;13.90;;;;;;;9.03;55.16;101523.59;1759710;81;21592;-79
2021/01/04 03:53:06;;;;;;;25.55;15.05;;;;;;;9.05;55.14;101524.33;1782488;80;21138;-79
2021/01/04 03:55:33;;;;;;;22.15;13.95;;;;;;;9.07;55.01;101530.39;1759744;81;21831;-78
2021/01/04 03:58:01;;;;;;;24.77;13.62;;;;;;;9.04;54.90;101528.48;1770699;79;21212;-78
2021/01/04 04:00:29;;;;;;;27.70;17.32;;;;;;;8.97;54.97;101528.09;1765032;80;22271;-77
2021/01/04 04:02:57;;;;;;;27.58;17.02;;;;;;;8.97;55.02;101529.44;1752272;81;21231;-77
2021/01/04 04:05:25;;;;;;;32.33;18.57;;;;;;;8.95;55.02;101528.72;1752245;81;22072;-78
2021/01/04 04:07:55;;;;;;;34.55;19.02;;;;;;;8.89;55.05;101531.36;1751903;81;21451;-80
2021/01/04 04:10:22;;;;;;;30.72;18.27;;;;;;;8.92;55.10;101530.77;1751996;81;21040;-79
2021/01/04 04:12:50;;;;;;;38.80;19.23;;;;;;;8.97;55.03;101538.78;1751648;81;21214;-78
2021/01/04 04:15:18;;;;;;;40.48;19.02;;;;;;;9.05;54.93;101536.36;1751915;81;21543;-80
2021/01/04 04:17:47;;;;;;;28.50;15.53;;;;;;;9.09;54.80;101536.48;1751965;81;21203;-78
2021/01/04 04:20:19;;;;;;;28.98;16.10;;;;;;;9.06;54.84;101536.72;1771468;80;21203;-79
2021/01/04 04:22:53;;;;;;;26.17;15.98;;;;;;;9.09;54.82;101533.81;1782943;80;21191;-79
2021/01/04 04:25:23;;;;;;;28.60;16.50;;;;;;;9.14;54.71;101540.97;1783239;80;21243;-78
2021/01/04 04:27:54;;;;;;;26.10;15.48;;;;;;;9.19;54.58;101541.09;1784496;80;21112;-78
2021/01/04 04:30:23;;;;;;;26.45;16.07;;;;;;;9.22;54.47;101536.36;1784073;80;21080;-79
2021/01/04 04:32:53;;;;;;;30.92;17.73;;;;;;;9.26;54.36;101522.23;1783958;80;21374;-78
2021/01/04 04:35:21;;;;;;;28.07;16.90;;;;;;;9.25;54.21;101525.40;1783998;80;21112;-77
2021/01/04 04:37:49;;;;;;;30.23;18.27;;;;;;;9.24;54.18;101522.86;1783897;80;21119;-75
2021/01/04 04:40:21;;;;;;;26.82;14.93;;;;;;;9.24;54.13;101521.52;1783895;80;21890;-76
2021/01/04 04:42:55;;;;;;;28.38;17.20;;;;;;;9.24;54.13;101524.20;1783699;79;21105;-78
2021/01/04 04:45:22;;;;;;;27.40;16.32;;;;;;;9.24;54.12;101521.52;1778758;80;21980;-79
2021/01/04 04:48:12;;;;;;;33.10;20.80;;;;;;;9.25;54.13;101519.20;1759410;79;21665;-79
2021/01/04 04:51:20;;;;;;;32.63;20.65;;;;;;;9.21;54.15;101510.58;1752279;81;21630;-79
2021/01/04 04:54:23;;;;;;;34.63;21.00;;;;;;;9.15;54.09;101518.61;1753218;80;21472;-77
2021/01/04 04:57:05;;;;;;;37.38;21.40;;;;;;;9.04;54.21;101512.44;1752685;81;21686;-77
2021/01/04 05:00:03;;;;;;;39.00;22.42;;;;;;;9.02;54.21;101509.87;1774270;80;21336;-80
2021/01/04 05:02:44;;;;;;;36.75;22.15;;;;;;;8.90;54.45;101497.47;1751911;80;21651;-77
2021/01/04 05:05:38;;;;;;;37.58;21.33;;;;;;;8.88;54.54;101495.42;1754153;81;21623;-76
2021/01/04 05:08:12;;;;;;;40.80;21.93;;;;;;;8.94;54.56;101498.09;1752384;81;21104;-77
2021/01/04 05:10:39;;;;;;;38.50;21.80;;;;;;;8.97;54.57;101497.37;1779618;80;21092;-78
2021/01/04 05:13:28;;;;;;;35.98;20.50;;;;;;;9.01;54.48;101502.83;1725186;81;21355;-78
2021/01/04 05:16:19;;;;;;;44.17;23.90;;;;;;;9.00;54.34;101503.81;1780184;80;21131;-78
2021/01/04 05:19:28;;;;;;;40.58;24.30;;;;;;;8.95;54.39;101497.98;1784461;80;21089;-77
2021/01/04 05:22:12;;;;;;;38.92;24.00;;;;;;;8.88;54.49;101499.44;1784023;80;21148;-77
2021/01/04 05:25:18;;;;;;;47.35;27.95;;;;;;;8.84;54.55;101496.64;1755596;80;21135;-77
2021/01/04 05:28:03;;;;;;;48.13;27.52;;;;;;;8.87;54.52;101493.24;1763579;79;21765;-77
2021/01/04 05:31:05;;;;;;;54.33;29.80;;;;;;;8.83;54.53;101488.27;1780060;79;21194;-77
2021/01/04 05:33:56;;;;;;;59.83;32.73;;;;;;;8.77;54.66;101490.94;1782737;80;21179;-80
2021/01/04 05:37:07;;;;;;;61.28;32.88;;;;;;;8.72;54.81;101494.92;1754664;80;21749;-82
2021/01/04 05:39:58;;;;;;;57.00;29.80;;;;;;;8.72;54.90;101498.47;1730393;81;21375;-80
2021/01/04 05:42:32;;;;;;;62.15;32.53;;;;;;;8.71;54.85;101496.75;1764660;80;21256;-81
2021/01/04 05:45:08;;;;;;;61.05;29.40;;;;;;;8.74;54.83;101497.01;1760810;80;21199;-79
2021/01/04 05:48:00;;;;;;;52.73;25.48;;;;;;;8.76;54.87;101496.39;1753459;80;21183;-80
2021/01/04 05:50:33;;;;;;;48.52;25.48;;;;;;;8.82;54.84;101497.26;1781340;80;21188;-78
2021/01/04 05:53:01;;;;;;;40.25;22.20;;;;;;;8.88;54.69;101500.28;1764025;79;21189;-77
2021/01/04 05:55:29;;;;;;;41.80;22.22;;;;;;;8.94;54.53;101499.42;1774558;80;21416;-79
2021/01/04 05:57:57;;;;;;;38.90;22.05;;;;;;;8.97;54.43;101505.88;1781089;80;21183;-78
2021/01/04 06:00:33;;;;;;;37.85;21.68;;;;;;;9.09;54.08;101496.88;1781320;80;21634;-79
2021/01/04 06:03:12;;;;;;;39.65;22.13;;;;;;;9.10;53.96;101496.75;1782076;79;21179;-80
2021/01/04 06:05:39;;;;;;;43.85;24.32;;;;;;;9.10;53.95;101499.42;1776169;79;21197;-79
2021/01/04 06:08:26;;;;;;;39.00;23.57;;;;;;;9.12;53.99;101497.46;1773445;79;21332;-78
2021/01/04 06:11:10;;;;;;;42.20;23.02;;;;;;;9.08;54.02;101498.70;1764304;80;21129;-79
2021/01/04 06:13:45;;;;;;;36.88;20.23;;;;;;;9.06;53.98;101497.97;1769049;79;21628;-77
2021/01/04 06:16:17;;;;;;;41.03;21.93;;;;;;;9.09;53.81;101503.08;1762254;80;21618;-80
2021/01/04 06:18:49;;;;;;;33.53;17.48;;;;;;;9.07;53.62;101509.50;1763368;80;21595;-77
2021/01/04 06:21:53;;;;;;;39.05;21.25;;;;;;;8.83;54.10;101507.81;1763384;79;21170;-77
2021/01/04 06:24:25;;;;;;;37.13;21.97;;;;;;;8.95;54.05;101500.66;1761203;79;21116;-77
2021/01/04 06:27:09;;;;;;;40.55;23.22;;;;;;;9.03;53.87;101504.87;1767114;79;21101;-77
2021/01/04 06:29:43;;;;;;;38.20;23.25;;;;;;;9.01;53.97;101506.84;1765203;79;21093;-78
2021/01/04 06:32:36;;;;;;;41.58;23.45;;;;;;;8.97;53.96;101497.85;1767175;79;21075;-77
2021/01/04 06:35:25;;;;;;;41.73;22.90;;;;;;;8.93;54.10;101502.59;1756395;80;21655;-78
2021/01/04 06:38:28;;;;;;;34.23;17.20;;;;;;;8.92;54.13;101504.90;1778825;79;21144;-78
2021/01/04 06:40:56;;;;;;;34.50;18.65;;;;;;;8.93;54.08;101507.08;1785171;79;21647;-77
2021/01/04 06:43:31;;;;;;;39.58;21.85;;;;;;;8.85;54.08;101498.33;1772570;79;21556;-78
2021/01/04 06:46:40;;;;;;;43.08;24.00;;;;;;;8.81;54.18;101503.55;1777652;80;21119;-76
2021/01/04 06:49:20;;;;;;;43.08;23.35;;;;;;;8.82;54.20;101503.94;1754533;80;21313;-78
2021/01/04 06:52:09;;;;;;;44.85;23.05;;;;;;;8.90;53.95;101502.82;1749510;81;21148;-81
2021/01/04 06:54:52;;;;;;;;;;;;;;;8.95;53.76;101505.13;1754480;81;21104;-77
2021/01/04 06:57:49;;;;;;;51.45;26.73;;;;;;;8.95;53.76;101502.45;1752528;80;20244;-77
2021/01/04 07:00:38;;;;;;;47.43;24.65;;;;;;;8.90;53.79;101501.48;1681335;81;21120;-77
2021/01/04 07:03:43;;;;;;;48.68;25.97;;;;;;;8.88;53.89;101508.30;1759148;79;21444;-78
2021/01/04 07:06:26;;;;;;;52.67;28.77;;;;;;;8.87;53.80;101509.77;1766832;79;21144;-76
2021/01/04 07:09:24;;;;;;;48.25;26.50;;;;;;;8.83;53.91;101515.83;1760092;80;21099;-75
2021/01/04 07:11:57;;;;;;;52.20;27.10;;;;;;;8.81;53.94;101516.91;1765228;80;21124;-77
2021/01/04 07:14:53;;;;;;;41.30;23.25;;;;;;;8.68;54.06;101522.39;1758438;80;21112;-77
2021/01/04 07:18:06;;;;;;;39.78;22.35;;;;;;;8.56;54.21;101522.84;1761449;79;21827;-78
2021/01/04 07:21:14;;;;;;;41.30;24.07;;;;;;;8.47;54.44;101519.55;1766800;79;21124;-78
2021/01/04 07:24:02;;;;;;;42.88;24.98;;;;;;;8.43;54.69;101521.23;1767091;80;21117;-79
2021/01/04 07:27:08;;;;;;;43.13;23.87;;;;;;;8.47;54.74;101530.23;1768092;79;21104;-78
2021/01/04 07:29:58;;;;;;;53.70;27.75;;;;;;;8.51;54.71;101530.36;1762486;79;21626;-79
2021/01/04 07:33:08;;;;;;;52.33;26.80;;;;;;;8.51;54.72;101529.03;1757333;79;21144;-78
2021/01/04 07:35:43;;;;;;;42.73;23.32;;;;;;;8.52;54.83;101537.40;1760676;79;21160;-78
2021/01/04 07:38:42;;;;;;;43.20;24.18;;;;;;;8.53;54.68;101532.91;1769820;80;21496;-79
2021/01/04 07:41:27;;;;;;;39.63;22.35;;;;;;;8.44;54.75;101530.95;1769175;80;21108;-77
2021/01/04 07:44:01;;;;;;;52.48;29.35;;;;;;;8.41;54.81;101518.70;1715096;80;21139;-78
2021/01/04 07:46:57;;;;;;;44.05;23.57;;;;;;;8.31;55.02;101524.32;1758131;80;22022;-77
2021/01/04 07:50:03;;;;;;;39.20;22.40;;;;;;;8.29;55.19;101519.59;1746091;79;21155;-77
2021/01/04 07:53:08;;;;;;;38.78;23.42;;;;;;;8.35;55.34;101525.80;1763608;80;21160;-78
2021/01/04 07:56:03;;;;;;;42.95;24.85;;;;;;;8.41;55.28;101532.05;1774703;79;21113;-76
2021/01/04 07:58:48;;;;;;;45.55;25.57;;;;;;;8.44;55.26;101530.95;1769084;80;21109;-77
2021/01/04 08:02:15;;;;;;;40.78;23.75;;;;;;;8.46;55.23;101532.54;1766212;79;22238;-79
2021/01/04 08:05:27;;;;;;;41.13;22.90;;;;;;;8.41;55.19;101532.53;1758685;80;21460;-79
2021/01/04 08:08:29;;;;;;;57.43;32.73;;;;;;;8.37;55.27;101542.11;1763965;79;21120;-80
2021/01/04 08:11:25;;;;;;;56.63;31.12;;;;;;;8.32;55.33;101540.24;1747715;80;21116;-80
2021/01/04 08:14:27;;;;;;;58.90;33.13;;;;;;;8.32;55.33;101535.39;1773851;79;21760;-81
2021/01/04 08:17:05;;;;;;;59.40;32.63;;;;;;;8.31;55.24;101537.67;1767879;80;21371;-82
2021/01/04 08:19:36;;;;;;;49.25;25.20;;;;;;;8.36;55.38;101543.53;1765064;80;21494;-79
2021/01/04 08:22:34;;;;;;;50.52;28.55;;;;;;;8.37;55.32;101546.11;1753240;80;21100;-80
2021/01/04 08:25:28;;;;;;;58.10;29.85;;;;;;;8.41;55.28;101549.89;1769722;80;21116;-80
2021/01/04 08:28:02;;;;;;;59.85;33.78;;;;;;;8.39;55.18;101540.16;1700759;80;21084;-78
2021/01/04 08:30:38;;;;;;;58.38;32.85;;;;;;;8.38;55.29;101533.61;1771581;79;22402;-79
2021/01/04 08:33:36;;;;;;;61.23;33.33;;;;;;;8.43;55.25;101530.59;1762228;79;21100;-79
2021/01/04 08:36:19;;;;;;;56.28;29.45;;;;;;;8.47;55.28;101532.05;1763960;79;22185;-79
2021/01/04 08:38:47;;;;;;;61.88;33.40;;;;;;;8.49;55.16;101530.10;1777588;79;21090;-80
2021/01/04 08:41:26;;;;;;;67.78;38.08;;;;;;;8.53;55.23;101537.76;1709841;80;21135;-78
2021/01/04 08:43:54;;;;;;;64.72;37.60;;;;;;;8.59;55.26;101544.47;1778229;80;22597;-78
2021/01/04 08:46:28;;;;;;;62.10;34.55;;;;;;;8.68;55.04;101544.24;1746476;80;21148;-77
2021/01/04 08:49:18;;;;;;;68.28;37.40;;;;;;;8.69;54.89;101533.42;1765499;79;21119;-77
2021/01/04 08:51:46;;;;;;;71.90;40.43;;;;;;;8.76;54.88;101541.80;1772228;79;21592;-77
2021/01/04 08:54:29;;;;;;;80.00;41.73;;;;;;;8.77;54.73;101542.19;1770257;79;21797;-78
2021/01/04 08:57:20;;;;;;;57.85;32.83;;;;;;;8.77;54.91;101544.38;1770822;80;21363;-78
2021/01/04 09:00:05;;;;;;;58.90;31.90;;;;;;;8.85;54.82;101553.09;1750525;79;21616;-77
2021/01/04 09:02:41;;;;;;;45.80;27.02;;;;;;;8.95;54.67;101551.43;1738015;79;21146;-78
2021/01/04 09:05:12;;;;;;;39.23;22.57;;;;;;;8.63;55.19;101554.80;1762006;80;21111;-77
2021/01/04 09:07:51;;;;;;;41.08;23.47;;;;;;;8.48;55.26;101547.09;1769951;79;21595;-77
2021/01/04 09:10:43;;;;;;;40.10;22.73;;;;;;;8.42;55.34;101539.57;1760282;80;21675;-78
2021/01/04 09:13:26;;;;;;;40.58;22.50;;;;;;;8.36;55.41;101546.20;1776363;80;21169;-77
2021/01/04 09:15:54;;;;;;;41.73;23.95;;;;;;;8.36;55.51;101539.08;1759028;80;21163;-78
2021/01/04 09:18:30;;;;;;;44.30;23.50;;;;;;;8.40;55.55;101546.34;1766578;80;21107;-78
2021/01/04 09:21:02;;;;;;;49.48;26.70;;;;;;;8.38;55.55;101552.30;1775118;80;21107;-78
2021/01/04 09:23:35;;;;;;;46.10;24.92;;;;;;;8.36;55.84;101544.87;1772259;80;22218;-78
2021/01/04 09:26:11;;;;;;;41.88;24.57;;;;;;;8.41;55.88;101536.54;1772739;80;21146;-78
2021/01/04 09:28:46;;;;;;;37.17;21.25;;;;;;;8.49;55.85;101529.61;1768864;80;21099;-79
2021/01/04 09:31:21;;;;;;;28.92;17.10;;;;;;;8.51;55.49;101526.36;1751751;80;21111;-78
2021/01/04 09:33:50;;;;;;;37.67;21.15;;;;;;;8.49;55.24;101528.28;1770657;80;21077;-78
2021/01/04 09:36:25;;;;;;;34.65;20.27;;;;;;;8.52;55.32;101524.53;1739769;81;21435;-79
2021/01/04 09:39:09;;;;;;;34.92;20.30;;;;;;;8.57;55.52;101525.88;1738206;81;21003;-78
2021/01/04 09:41:41;;;;;;;30.52;18.05;;;;;;;8.59;55.20;101522.61;1782667;78;21112;-77
2021/01/04 09:44:13;;;;;;;32.65;18.98;;;;;;;8.58;55.00;101509.36;1767647;80;21484;-79
2021/01/04 09:47:02;;;;;;;34.53;19.85;;;;;;;8.55;54.98;101510.47;1774623;80;21107;-79
2021/01/04 09:49:47;;;;;;;34.85;19.00;;;;;;;8.55;54.75;101510.47;1767674;79;21439;-79
2021/01/04 09:52:25;;;;;;;38.88;23.90;;;;;;;8.48;54.90;101499.88;1774844;79;21149;-78
2021/01/04 09:55:07;;;;;;;50.50;28.45;;;;;;;8.41;54.99;101486.66;1777949;79;21467;-76
2021/01/04 09:57:36;;;;;;;48.83;27.07;;;;;;;8.39;55.12;101493.44;1763665;79;21106;-78
2021/01/04 10:00:21;;;;;;;53.78;29.80;;;;;;;8.41;55.25;101494.67;1763816;79;21128;-77
2021/01/04 10:03:03;;;;;;;53.17;28.98;;;;;;;8.39;55.17;101493.44;1770392;79;21374;-77
2021/01/04 10:05:38;;;;;;;45.60;27.27;;;;;;;8.42;55.18;101485.69;1759973;79;21151;-78
2021/01/04 10:08:14;;;;;;;36.08;21.55;;;;;;;8.48;55.24;101492.36;1770333;79;21089;-78
2021/01/04 10:11:04;;;;;;;41.68;25.52;;;;;;;8.54;55.23;101487.41;1757949;79;21124;-80
2021/01/04 10:13:37;;;;;;;45.05;26.57;;;;;;;8.64;55.11;101483.05;1766501;79;21100;-79
2021/01/04 10:16:12;;;;;;;57.08;33.28;;;;;;;8.64;55.03;101469.69;1766989;79;21143;-78
2021/01/04 10:19:03;;;;;;;55.12;32.93;;;;;;;8.59;55.03;101467.87;1770826;79;20986;-77
2021/01/04 10:21:49;;;;;;;52.60;29.87;;;;;;;8.60;55.08;101472.23;1762073;79;21154;-78
2021/01/04 10:24:54;;;;;;;51.30;28.45;;;;;;;8.64;54.90;101464.84;1803326;77;22810;-79
2021/01/04 10:27:23;;;;;;;52.90;29.55;;;;;;;8.57;54.83;101467.13;1759046;80;21796;-79
2021/01/04 10:30:00;;;;;;;42.48;25.80;;;;;;;8.50;54.81;101460.58;1747086;79;21557;-80
2021/01/04 10:32:36;;;;;;;39.15;23.92;;;;;;;8.47;54.99;101461.30;1689853;82;21202;-80
2021/01/04 10:35:04;;;;;;;42.13;26.17;;;;;;;8.51;55.17;101464.95;1771957;80;21117;-79
2021/01/04 10:37:52;;;;;;;37.53;22.45;;;;;;;8.52;55.11;101466.64;1775104;78;21117;-77
2021/01/04 10:40:22;;;;;;;40.85;23.27;;;;;;;8.55;55.03;101463.73;1780632;78;21129;-81
2021/01/04 10:43:03;;;;;;;46.95;25.02;;;;;;;8.51;54.97;101454.27;1784223;78;21431;-79
2021/01/04 10:45:44;;;;;;;41.73;22.37;;;;;;;8.46;55.04;101455.11;1779427;80;21212;-79
2021/01/04 10:48:19;;;;;;;42.03;24.35;;;;;;;8.45;55.00;101452.08;1770783;79;21189;-81
2021/01/04 10:51:01;;;;;;;40.13;25.37;;;;;;;8.47;55.01;101454.14;1760669;80;21202;-80
2021/01/04 10:53:40;;;;;;;48.00;27.95;;;;;;;8.50;54.92;101448.56;1753067;79;21181;-80
2021/01/04 10:56:25;;;;;;;39.23;24.60;;;;;;;8.49;54.92;101460.19;1777687;80;22287;-79
2021/01/04 10:59:18;;;;;;;39.45;23.20;;;;;;;8.51;54.89;101460.09;1745851;80;21202;-78
2021/01/04 11:01:48;;;;;;;38.33;22.70;;;;;;;8.51;54.90;101462.27;1763439;79;22203;-77
2021/01/04 11:04:19;;;;;;;38.92;22.35;;;;;;;8.53;54.95;101463.48;1757867;81;21228;-77
2021/01/04 11:07:03;;;;;;;36.93;21.62;;;;;;;8.55;54.98;101468.23;1777003;80;21196;-75
2021/01/04 11:09:35;;;;;;;43.25;24.70;;;;;;;8.61;54.93;101467.25;1751751;80;21209;-77
2021/01/04 11:12:21;;;;;;;42.30;23.12;;;;;;;8.68;54.82;101473.46;1778422;80;21063;-78
2021/01/04 11:14:56;;;;;;;45.88;27.22;;;;;;;8.69;54.57;101473.33;1749984;81;21217;-77
2021/01/04 11:17:32;;;;;;;48.92;25.00;;;;;;;8.67;54.40;101475.25;1773571;80;21170;-78
2021/01/04 11:20:16;;;;;;;34.45;20.08;;;;;;;8.66;54.47;101477.56;1735070;81;21142;-78
2021/01/04 11:22:45;;;;;;;34.83;21.70;;;;;;;8.68;54.40;101474.31;1755754;79;21380;-79
2021/01/04 11:25:13;;;;;;;34.43;19.80;;;;;;;8.67;54.42;101469.06;1754442;81;21125;-79
2021/01/04 11:27:41;;;;;;;37.23;21.70;;;;;;;8.65;54.44;101458.52;1755654;81;21184;-80
2021/01/04 11:30:15;;;;;;;28.52;17.23;;;;;;;8.62;54.51;101447.58;1756757;80;21375;-80
2021/01/04 11:32:44;;;;;;;28.67;19.20;;;;;;;8.58;54.56;101442.14;1756677;79;21700;-80
2021/01/04 11:35:12;;;;;;;29.63;18.37;;;;;;;8.51;54.72;101452.92;1772858;79;21375;-81
2021/01/04 11:37:40;;;;;;;28.12;18.87;;;;;;;8.48;54.81;101467.84;1713391;79;21955;-79
2021/01/04 11:40:11;;;;;;;34.35;20.50;;;;;;;8.44;54.86;101482.40;1755144;79;21184;-79
2021/01/04 11:42:48;;;;;;;33.25;19.55;;;;;;;8.40;54.90;101480.94;1759165;79;21224;-79
2021/01/04 11:45:17;;;;;;;33.40;19.95;;;;;;;8.33;55.00;101481.03;1723483;81;21341;-81
2021/01/04 11:47:46;;;;;;;32.50;19.25;;;;;;;8.28;55.10;101483.20;1781309;78;21430;-79
2021/01/04 11:50:18;;;;;;;29.75;18.05;;;;;;;8.18;55.30;101475.55;1743273;80;21118;-80
2021/01/04 11:52:46;;;;;;;26.30;15.28;;;;;;;8.12;55.48;101476.84;1777856;79;21246;-79
2021/01/04 11:55:17;;;;;;;26.90;17.02;;;;;;;8.08;55.62;101481.59;1784355;78;21608;-80
2021/01/04 11:57:44;;;;;;;29.92;17.82;;;;;;;8.00;55.76;101482.66;1781645;80;21105;-80
2021/01/04 12:00:13;;;;;;;26.37;17.37;;;;;;;7.96;55.88;101478.52;1777322;80;21809;-82
2021/01/04 12:02:42;;;;;;;27.70;17.77;;;;;;;7.92;55.98;101474.37;1778625;80;21165;-80
2021/01/04 12:05:13;;;;;;;27.65;17.20;;;;;;;7.87;56.12;101472.53;1763882;79;21188;-80
2021/01/04 12:07:41;;;;;;;26.07;14.83;;;;;;;7.80;56.28;101467.28;1745805;79;21224;-79
2021/01/04 12:10:10;;;;;;;26.62;15.90;;;;;;;7.77;56.35;101470.20;1741297;79;21715;-82
2021/01/04 12:12:38;;;;;;;24.43;15.28;;;;;;;7.79;56.42;101464.25;1752440;79;21595;-78
2021/01/04 12:15:12;;;;;;;26.35;17.42;;;;;;;7.84;56.44;101462.94;1746022;81;21070;-77
2021/01/04 12:17:46;;;;;;;28.52;16.82;;;;;;;7.91;56.39;101474.02;1753324;81;21655;-80
2021/01/04 12:20:15;;;;;;;22.65;14.68;;;;;;;7.94;56.34;101468.42;1750453;81;21260;-80
2021/01/04 12:22:46;;;;;;;29.27;16.65;;;;;;;7.98;56.26;101471.72;1753252;79;21181;-80
2021/01/04 12:25:16;;;;;;;26.12;15.83;;;;;;;7.97;56.12;101462.86;1726930;79;21218;-83